Time;durP1;ratioP1;P1;durP2;ratioP2;P2;SDS_P1;SDS_P2;PMS_P1;PMS_P2;Temp;Humidity;BMP_temperature;BMP_pressure;BME280_temperature;BME280_humidity;BME280_pressure;Samples;Min_cycle;Max_cycle;Signal;HPM_P1;HPM_P2
2021/06/28 00:01:23;;;;;;;1999.90;999.90;;;22.40;99.90;;;;;;5062758;28;20394;-86
2021/06/28 00:04:02;;;;;;;1999.90;999.90;;;22.40;99.90;;;;;;5080673;28;20522;-86
2021/06/28 00:06:33;;;;;;;1999.90;999.90;;;22.40;99.90;;;;;;5081348;28;20382;-87
2021/06/28 00:09:25;;;;;;;1999.90;999.90;;;22.40;99.90;;;;;;5062580;28;20432;-86
2021/06/28 00:11:59;;;;;;;1999.90;999.90;;;22.30;99.90;;;;;;5074221;28;20415;-87
2021/06/28 00:14:34;;;;;;;1999.90;999.90;;;22.30;99.90;;;;;;5062727;28;20478;-86
2021/06/28 00:17:06;;;;;;;1999.90;999.90;;;22.20;99.90;;;;;;5063138;28;20476;-86
2021/06/28 00:19:43;;;;;;;1999.90;999.90;;;22.20;99.90;;;;;;5062313;28;20441;-86
2021/06/28 00:22:09;;;;;;;1999.90;999.90;;;22.20;99.90;;;;;;5081475;28;20866;-86
2021/06/28 00:25:00;;;;;;;1999.90;999.90;;;22.10;99.90;;;;;;5079060;28;20415;-86
2021/06/28 00:27:26;;;;;;;1999.90;999.90;;;22.10;99.90;;;;;;5057389;28;20418;-86
2021/06/28 00:30:36;;;;;;;1999.90;999.90;;;22.10;99.90;;;;;;5079628;28;20989;-87
2021/06/28 00:33:10;;;;;;;1999.90;999.90;;;22.10;99.90;;;;;;5056818;28;20441;-86
2021/06/28 00:35:39;;;;;;;1999.90;999.90;;;22.10;99.90;;;;;;5040832;28;20842;-87
2021/06/28 00:38:09;;;;;;;1999.90;999.90;;;22.00;99.90;;;;;;5060285;28;20523;-86
2021/06/28 00:40:42;;;;;;;1999.90;999.90;;;22.00;99.90;;;;;;5080299;28;20476;-87
2021/06/28 00:43:13;;;;;;;1999.90;999.90;;;22.00;99.90;;;;;;5061991;28;20441;-87
2021/06/28 00:45:51;;;;;;;1999.90;999.90;;;22.00;99.90;;;;;;5061833;28;20402;-86
2021/06/28 00:48:39;;;;;;;1999.90;999.90;;;22.00;99.90;;;;;;5061504;28;20413;-86
2021/06/28 00:51:05;;;;;;;1999.90;999.90;;;21.90;99.90;;;;;;5079667;28;20413;-86
2021/06/28 00:53:31;;;;;;;1999.90;999.90;;;21.80;99.90;;;;;;5079155;28;20769;-87
2021/06/28 00:57:07;;;;;;;1999.90;999.90;;;21.80;99.90;;;;;;5079155;28;20406;-86
2021/06/28 00:59:04;;;;;;;1999.90;999.90;;;21.80;99.90;;;;;;5066429;28;20529;-86
2021/06/28 01:01:42;;;;;;;1999.90;999.90;;;21.70;99.90;;;;;;5062164;28;20824;-86
2021/06/28 01:04:17;;;;;;;1999.90;999.90;;;21.80;99.90;;;;;;5079513;28;20423;-86
2021/06/28 01:06:46;;;;;;;1999.90;999.90;;;21.80;99.90;;;;;;5080262;28;20737;-86
2021/06/28 01:09:24;;;;;;;1999.90;999.90;;;21.70;99.90;;;;;;5061581;28;20517;-86
2021/06/28 01:11:50;;;;;;;1999.90;999.90;;;21.70;99.90;;;;;;5060913;28;20406;-87
2021/06/28 01:14:27;;;;;;;1999.90;999.90;;;21.70;99.90;;;;;;5078226;28;20398;-86
2021/06/28 01:16:56;;;;;;;1999.90;999.90;;;21.60;99.90;;;;;;5061539;28;20156;-86
2021/06/28 01:19:26;;;;;;;1999.90;999.90;;;21.60;99.90;;;;;;5078662;28;20437;-86
2021/06/28 01:22:03;;;;;;;1999.90;999.90;;;21.60;99.90;;;;;;5061103;28;20426;-87
2021/06/28 01:24:43;;;;;;;1999.90;999.90;;;21.60;99.90;;;;;;5060252;28;20467;-87
2021/06/28 01:27:12;;;;;;;1999.90;999.90;;;21.50;99.90;;;;;;5077648;28;20418;-86
2021/06/28 01:29:40;;;;;;;1999.90;999.90;;;21.50;99.90;;;;;;5078689;28;20847;-86
2021/06/28 01:32:10;;;;;;;1999.90;999.90;;;21.50;99.90;;;;;;5060503;28;20505;-87
2021/06/28 01:34:36;;;;;;;1999.90;999.90;;;21.40;99.90;;;;;;5061236;28;20418;-86
2021/06/28 01:40:03;;;;;;;1999.90;999.90;;;21.40;99.90;;;;;;5102061;28;20211;-81
2021/06/28 01:42:29;;;;;;;1999.90;999.90;;;21.40;99.90;;;;;;5097248;28;20535;-81
2021/06/28 01:44:55;;;;;;;1999.90;999.90;;;21.30;99.90;;;;;;5097490;28;20440;-79
2021/06/28 01:47:21;;;;;;;1999.90;999.90;;;21.30;99.90;;;;;;5100046;28;20553;-81
2021/06/28 01:49:48;;;;;;;1999.90;999.90;;;21.30;99.90;;;;;;5101540;28;20785;-81
2021/06/28 01:52:14;;;;;;;1999.90;999.90;;;21.30;99.90;;;;;;5100827;28;20582;-81
2021/06/28 01:54:40;;;;;;;1999.90;999.90;;;21.30;99.90;;;;;;5101350;28;20470;-81
2021/06/28 01:57:06;;;;;;;1999.90;999.90;;;21.30;99.90;;;;;;5100983;28;20413;-81
2021/06/28 01:59:35;;;;;;;1999.90;999.90;;;21.30;99.90;;;;;;5100741;28;20432;-81
2021/06/28 02:02:02;;;;;;;1999.90;999.90;;;21.20;99.90;;;;;;5100912;28;20449;-81
2021/06/28 02:04:28;;;;;;;1999.90;999.90;;;21.20;99.90;;;;;;5101370;28;20397;-80
2021/06/28 02:06:56;;;;;;;1999.90;999.90;;;21.10;99.90;;;;;;5100551;28;20431;-81
2021/06/28 02:09:22;;;;;;;1999.90;999.90;;;21.10;99.90;;;;;;5082466;28;20421;-80
2021/06/28 02:11:49;;;;;;;1999.90;999.90;;;21.10;99.90;;;;;;5100468;28;20738;-81
2021/06/28 02:14:16;;;;;;;1999.90;999.90;;;21.10;99.90;;;;;;5101020;28;20402;-80
2021/06/28 02:16:43;;;;;;;1999.90;999.90;;;21.10;99.90;;;;;;5100364;28;20407;-80
2021/06/28 02:19:08;;;;;;;1999.90;999.90;;;21.10;99.90;;;;;;5100307;28;20488;-80
2021/06/28 02:21:34;;;;;;;1999.90;999.90;;;21.10;99.90;;;;;;5100766;28;20428;-81
2021/06/28 02:24:00;;;;;;;1999.90;999.90;;;21.10;99.90;;;;;;5082111;28;20163;-80
2021/06/28 02:26:26;;;;;;;1999.90;999.90;;;21.00;99.90;;;;;;5100268;28;20167;-81
2021/06/28 02:28:51;;;;;;;1999.90;999.90;;;21.00;99.90;;;;;;5100854;28;20550;-81
2021/06/28 02:31:22;;;;;;;1999.90;999.90;;;21.00;99.90;;;;;;5100331;28;20661;-81
2021/06/28 02:33:50;;;;;;;1999.90;999.90;;;21.00;99.90;;;;;;5082594;28;20190;-81
2021/06/28 02:36:20;;;;;;;1999.90;999.90;;;21.00;99.90;;;;;;5100428;28;20416;-80
2021/06/28 02:38:47;;;;;;;1999.90;999.90;;;21.00;99.90;;;;;;5100121;28;20432;-81
2021/06/28 02:41:13;;;;;;;1999.90;999.90;;;21.00;99.90;;;;;;5164346;22;20825;-80
2021/06/28 02:43:39;;;;;;;1999.90;999.90;;;20.90;99.90;;;;;;5226386;22;20578;-81
2021/06/28 02:46:06;;;;;;;1999.90;999.90;;;20.90;99.90;;;;;;5100203;28;20401;-81
2021/06/28 02:48:31;;;;;;;1999.90;999.90;;;20.90;99.90;;;;;;5100003;28;20748;-81
2021/06/28 02:50:57;;;;;;;1999.90;999.90;;;20.80;99.90;;;;;;5100930;28;20386;-81
2021/06/28 02:53:23;;;;;;;1999.90;999.90;;;20.80;99.90;;;;;;5100093;28;20192;-80
2021/06/28 02:55:50;;;;;;;1999.90;999.90;;;20.80;99.90;;;;;;5099914;28;20163;-81
2021/06/28 02:58:18;;;;;;;1999.90;999.90;;;20.80;99.90;;;;;;5098353;28;20156;-81
2021/06/28 03:00:44;;;;;;;1999.90;999.90;;;20.80;99.90;;;;;;5099468;28;20412;-81
2021/06/28 03:03:10;;;;;;;1999.90;999.90;;;20.70;99.90;;;;;;5099942;28;20500;-81
2021/06/28 03:05:36;;;;;;;1999.90;999.90;;;20.80;99.90;;;;;;5099911;28;20424;-81
2021/06/28 03:08:05;;;;;;;1999.90;999.90;;;20.70;99.90;;;;;;5100139;28;20169;-80
2021/06/28 03:10:31;;;;;;;1999.90;999.90;;;20.70;99.90;;;;;;5100167;28;20508;-81
2021/06/28 03:12:57;;;;;;;1999.90;999.90;;;20.70;99.90;;;;;;5099881;28;20477;-81
2021/06/28 03:15:23;;;;;;;1999.90;999.90;;;20.70;99.90;;;;;;5100050;28;20433;-81
2021/06/28 03:17:48;;;;;;;1999.90;999.90;;;20.60;99.90;;;;;;5099972;28;20193;-81
2021/06/28 03:20:16;;;;;;;1999.90;999.90;;;20.70;99.90;;;;;;5097736;28;20188;-80
2021/06/28 03:22:43;;;;;;;1999.90;999.90;;;20.70;99.90;;;;;;5100102;28;20475;-81
2021/06/28 03:25:11;;;;;;;1999.90;999.90;;;20.60;99.90;;;;;;5099153;28;20415;-81
2021/06/28 03:27:38;;;;;;;1999.90;999.90;;;20.60;99.90;;;;;;5099718;28;20398;-81
2021/06/28 03:30:06;;;;;;;1999.90;999.90;;;20.50;99.90;;;;;;5098895;28;20449;-81
2021/06/28 03:32:31;;;;;;;1999.90;999.90;;;20.60;99.90;;;;;;5081231;28;20467;-81
2021/06/28 03:34:57;;;;;;;1999.90;999.90;;;20.50;99.90;;;;;;5099353;28;20413;-81
2021/06/28 03:37:23;;;;;;;1999.90;999.90;;;20.50;99.90;;;;;;5099586;28;20170;-81
2021/06/28 03:39:49;;;;;;;1999.90;999.90;;;20.50;99.90;;;;;;5099476;28;20189;-81
2021/06/28 03:42:14;;;;;;;1999.90;999.90;;;20.50;99.90;;;;;;5098347;28;20438;-81
2021/06/28 03:44:40;;;;;;;1999.90;999.90;;;20.50;99.90;;;;;;5099723;28;20231;-81
2021/06/28 03:47:06;;;;;;;1999.90;999.90;;;20.50;99.90;;;;;;5099527;28;20195;-81
2021/06/28 03:49:32;;;;;;;1999.90;999.90;;;20.50;99.90;;;;;;5099464;28;20190;-81
2021/06/28 03:51:58;;;;;;;1999.90;999.90;;;20.50;99.90;;;;;;5099234;28;20402;-81
2021/06/28 03:54:24;;;;;;;1999.90;999.90;;;20.50;99.90;;;;;;5099364;28;20393;-81
2021/06/28 03:56:49;;;;;;;1999.90;999.90;;;20.40;99.90;;;;;;5097710;28;20899;-81
2021/06/28 03:59:16;;;;;;;1999.90;999.90;;;20.40;99.90;;;;;;5099357;28;20267;-81
2021/06/28 04:01:41;;;;;;;1999.90;999.90;;;20.40;99.90;;;;;;5099656;28;20627;-81
2021/06/28 04:04:07;;;;;;;1999.90;999.90;;;20.50;99.90;;;;;;5098782;28;20414;-80
2021/06/28 04:06:34;;;;;;;1999.90;999.90;;;20.50;99.90;;;;;;5097097;28;20191;-81
2021/06/28 04:08:59;;;;;;;1999.90;999.90;;;20.40;99.90;;;;;;5080873;28;20251;-81
2021/06/28 04:11:28;;;;;;;1999.90;999.90;;;20.40;99.90;;;;;;5097641;28;20412;-81
2021/06/28 04:13:58;;;;;;;1999.90;999.90;;;20.40;99.90;;;;;;5098314;28;20213;-81
2021/06/28 04:16:24;;;;;;;1999.90;999.90;;;20.40;99.90;;;;;;5098850;28;20409;-81
2021/06/28 04:18:50;;;;;;;1999.90;999.90;;;20.50;99.90;;;;;;5097970;28;20452;-81
2021/06/28 04:21:16;;;;;;;1999.90;999.90;;;20.50;99.90;;;;;;5098579;28;20393;-81
2021/06/28 04:23:42;;;;;;;1999.90;999.90;;;20.50;99.90;;;;;;5080176;28;20409;-81
2021/06/28 04:26:07;;;;;;;1999.90;999.90;;;20.50;99.90;;;;;;5099033;28;20176;-81
2021/06/28 04:28:34;;;;;;;1999.90;999.90;;;20.50;99.90;;;;;;5098322;28;20225;-81
2021/06/28 04:31:00;;;;;;;1999.90;999.90;;;20.50;99.90;;;;;;5098429;28;20168;-81
2021/06/28 04:33:26;;;;;;;1999.90;999.90;;;20.60;99.90;;;;;;5080321;28;20505;-81
2021/06/28 04:35:52;;;;;;;1999.90;999.90;;;20.60;99.90;;;;;;5098111;28;20402;-81
2021/06/28 04:38:18;;;;;;;1999.90;999.90;;;20.70;99.90;;;;;;5097857;28;20405;-81
2021/06/28 04:40:44;;;;;;;1999.90;999.90;;;20.80;99.90;;;;;;5098701;28;20427;-80
2021/06/28 04:43:10;;;;;;;1999.90;999.90;;;20.90;99.90;;;;;;5079626;28;20180;-81
2021/06/28 04:45:35;;;;;;;1999.90;999.90;;;21.00;99.90;;;;;;5098405;28;20388;-81
2021/06/28 04:48:01;;;;;;;1999.90;999.90;;;21.00;99.90;;;;;;5096753;28;20263;-80
2021/06/28 04:50:27;;;;;;;1999.90;999.90;;;21.00;99.90;;;;;;5079317;28;20187;-81
2021/06/28 04:52:54;;;;;;;1999.90;999.90;;;20.90;99.90;;;;;;5097811;28;20207;-80
2021/06/28 04:55:21;;;;;;;1999.90;999.90;;;20.90;99.90;;;;;;5098174;28;20530;-81
2021/06/28 04:57:47;;;;;;;1999.90;999.90;;;20.90;99.90;;;;;;5097503;28;20401;-81
2021/06/28 05:00:15;;;;;;;1999.90;999.90;;;20.90;99.90;;;;;;5095914;28;20539;-80
2021/06/28 05:02:42;;;;;;;1999.90;999.90;;;21.00;99.90;;;;;;5097628;28;20519;-80
2021/06/28 05:05:12;;;;;;;1999.90;999.90;;;21.10;99.90;;;;;;5098093;28;20526;-80
2021/06/28 05:07:38;;;;;;;1999.90;999.90;;;21.20;99.90;;;;;;5097534;28;20402;-81
2021/06/28 05:10:05;;;;;;;1999.90;999.90;;;21.20;99.90;;;;;;5097260;28;20429;-81
2021/06/28 05:12:31;;;;;;;1999.90;999.90;;;21.30;99.90;;;;;;5097526;28;20988;-80
2021/06/28 05:14:56;;;;;;;1999.90;999.90;;;21.30;99.90;;;;;;5097796;28;20405;-81
2021/06/28 05:17:24;;;;;;;1999.90;999.90;;;21.30;99.90;;;;;;5097428;28;20171;-81
2021/06/28 05:19:50;;;;;;;1999.90;999.90;;;21.30;99.90;;;;;;5098022;28;20536;-81
2021/06/28 05:22:16;;;;;;;1999.90;999.90;;;21.30;99.90;;;;;;5096421;28;20438;-81
2021/06/28 05:24:41;;;;;;;1999.90;999.90;;;21.30;99.90;;;;;;5098261;28;20170;-81
2021/06/28 05:27:07;;;;;;;1999.90;999.90;;;21.30;99.90;;;;;;5098504;28;20519;-81
2021/06/28 05:29:33;;;;;;;1999.90;999.90;;;21.30;99.90;;;;;;5097937;28;20301;-81
2021/06/28 05:31:59;;;;;;;1999.90;999.90;;;21.30;99.90;;;;;;5247886;22;21079;-81
2021/06/28 05:34:24;;;;;;;1999.90;999.90;;;21.40;99.90;;;;;;5059832;28;20198;-81
2021/06/28 05:36:50;;;;;;;1999.90;999.90;;;21.30;99.90;;;;;;5077571;28;20168;-81
2021/06/28 05:39:16;;;;;;;1999.90;999.90;;;21.30;99.90;;;;;;5077847;28;20188;-81
2021/06/28 05:41:42;;;;;;;1999.90;999.90;;;21.30;99.90;;;;;;5077067;28;20390;-81
2021/06/28 05:44:08;;;;;;;1999.90;999.90;;;21.30;99.90;;;;;;5078087;28;20407;-81
2021/06/28 05:46:34;;;;;;;1999.90;999.90;;;21.40;99.90;;;;;;5077872;28;20418;-81
2021/06/28 05:48:59;;;;;;;1999.90;999.90;;;21.50;99.90;;;;;;5077524;28;20187;-81
2021/06/28 05:51:26;;;;;;;1999.90;999.90;;;21.40;99.90;;;;;;5077734;28;20403;-81
2021/06/28 05:53:51;;;;;;;1999.90;999.90;;;21.40;99.90;;;;;;5077318;28;20259;-81
2021/06/28 05:56:17;;;;;;;1999.90;999.90;;;21.50;99.90;;;;;;5076906;28;20434;-81
2021/06/28 05:58:43;;;;;;;1999.90;999.90;;;21.50;99.90;;;;;;5075916;28;20164;-81
2021/06/28 06:01:09;;;;;;;1999.90;999.90;;;21.40;99.90;;;;;;5058532;28;20209;-81
2021/06/28 06:03:36;;;;;;;1999.90;999.90;;;21.40;99.90;;;;;;5059816;28;20452;-81
2021/06/28 06:06:03;;;;;;;1999.90;999.90;;;21.30;99.90;;;;;;5077166;28;20493;-81
2021/06/28 06:08:29;;;;;;;1999.90;999.90;;;21.30;99.90;;;;;;5058405;28;20414;-80
2021/06/28 06:10:57;;;;;;;1999.90;999.90;;;21.30;99.90;;;;;;5058563;28;20420;-81
2021/06/28 06:13:23;;;;;;;1999.90;999.90;;;21.20;99.90;;;;;;5076815;28;21014;-81
2021/06/28 06:15:49;;;;;;;1999.90;999.90;;;21.30;99.90;;;;;;5076031;28;20497;-81
2021/06/28 06:18:15;;;;;;;1999.90;999.90;;;21.20;99.90;;;;;;5077055;28;20387;-81
2021/06/28 06:20:43;;;;;;;1999.90;999.90;;;21.20;99.90;;;;;;5074141;28;20426;-81
2021/06/28 06:23:10;;;;;;;1999.90;999.90;;;21.10;99.90;;;;;;5076894;28;20165;-81
2021/06/28 06:25:36;;;;;;;1999.90;999.90;;;21.20;99.90;;;;;;5077038;28;20488;-80
2021/06/28 06:28:02;;;;;;;1999.90;999.90;;;21.20;99.90;;;;;;5075983;28;20402;-81
2021/06/28 06:30:28;;;;;;;1999.90;999.90;;;21.20;99.90;;;;;;5076683;28;20947;-81
2021/06/28 06:32:54;;;;;;;1999.90;999.90;;;21.20;99.90;;;;;;5077663;28;20971;-80
2021/06/28 06:35:21;;;;;;;1999.90;999.90;;;21.30;99.90;;;;;;5080412;28;20164;-81
2021/06/28 06:37:47;;;;;;;1999.90;999.90;;;21.30;99.90;;;;;;5080276;28;20144;-81
2021/06/28 06:40:13;;;;;;;1999.90;999.90;;;21.40;99.90;;;;;;5080371;28;20418;-81
2021/06/28 06:42:42;;;;;;;1999.90;999.90;;;21.40;99.90;;;;;;5080430;28;20402;-81
2021/06/28 06:45:09;;;;;;;1999.90;999.90;;;21.40;99.90;;;;;;5080075;28;20402;-81
2021/06/28 06:47:34;;;;;;;1999.90;999.90;;;21.40;99.90;;;;;;5061666;28;20422;-81
2021/06/28 06:50:00;;;;;;;1999.90;999.90;;;21.40;99.90;;;;;;5080750;28;20456;-81
2021/06/28 06:52:26;;;;;;;1999.90;999.90;;;21.50;99.90;;;;;;5078622;28;20206;-81
2021/06/28 06:54:51;;;;;;;1999.90;999.90;;;21.50;99.90;;;;;;5080352;28;20634;-81
2021/06/28 06:57:17;;;;;;;1999.90;999.90;;;21.50;99.90;;;;;;5078393;28;20171;-81
2021/06/28 06:59:43;;;;;;;1999.90;999.90;;;21.50;99.90;;;;;;5079887;28;20184;-81
2021/06/28 07:02:09;;;;;;;1999.90;999.90;;;21.50;99.90;;;;;;5079624;28;20499;-81
2021/06/28 07:04:37;;;;;;;1999.90;999.90;;;21.60;99.90;;;;;;5080648;28;20426;-81
2021/06/28 07:07:06;;;;;;;1999.90;999.90;;;21.70;99.90;;;;;;5080478;28;20535;-81
2021/06/28 07:09:31;;;;;;;1999.90;999.90;;;21.70;99.90;;;;;;5080929;28;20418;-81
2021/06/28 07:12:03;;;;;;;1999.90;999.90;;;21.80;99.90;;;;;;5080002;28;20407;-80
2021/06/28 07:14:29;;;;;;;1999.90;999.90;;;21.90;99.90;;;;;;5080281;28;20171;-80
2021/06/28 07:16:54;;;;;;;1999.90;999.90;;;22.00;99.90;;;;;;5079738;28;20403;-81
2021/06/28 07:19:20;;;;;;;1999.90;999.90;;;22.00;99.90;;;;;;5079099;28;20183;-81
2021/06/28 07:21:48;;;;;;;1999.90;999.90;;;22.00;99.90;;;;;;5080212;28;20160;-80
2021/06/28 07:24:15;;;;;;;1999.90;999.90;;;22.10;99.90;;;;;;5077541;28;20203;-80
2021/06/28 07:26:40;;;;;;;1999.90;999.90;;;22.10;99.90;;;;;;5079461;28;20781;-81
2021/06/28 07:29:06;;;;;;;1999.90;999.90;;;22.10;99.90;;;;;;5078413;28;20423;-80
2021/06/28 07:31:32;;;;;;;1999.90;999.90;;;22.10;99.90;;;;;;5078092;28;20483;-80
2021/06/28 07:33:58;;;;;;;1999.90;999.90;;;22.20;99.90;;;;;;5077787;28;20664;-81
2021/06/28 07:36:24;;;;;;;1999.90;999.90;;;22.30;99.90;;;;;;5077290;28;20422;-80
2021/06/28 07:38:50;;;;;;;1999.90;999.90;;;22.20;99.90;;;;;;5060765;28;20483;-81
2021/06/28 07:41:16;;;;;;;1999.90;999.90;;;22.00;99.90;;;;;;5078948;28;20402;-79
2021/06/28 07:43:42;;;;;;;1999.90;999.90;;;21.90;99.90;;;;;;5059557;28;20203;-81
2021/06/28 07:46:08;;;;;;;1999.90;999.90;;;21.80;99.90;;;;;;5078293;28;20402;-81
2021/06/28 07:48:37;;;;;;;1999.90;999.90;;;21.90;99.90;;;;;;5161031;22;20219;-91
2021/06/28 07:51:06;;;;;;;1999.90;999.90;;;21.90;99.90;;;;;;5093687;28;20543;-91
2021/06/28 07:53:32;;;;;;;1999.90;999.90;;;22.00;99.90;;;;;;5076691;28;20461;-90
2021/06/28 07:56:17;;;;;;;1999.90;999.90;;;22.10;99.90;;;;;;5093542;28;20509;-91
2021/06/28 07:58:49;;;;;;;1999.90;999.90;;;22.40;99.90;;;;;;5095307;28;20590;-88
2021/06/28 08:01:32;;;;;;;1999.90;999.90;;;22.50;99.90;;;;;;5095261;28;20381;-88
2021/06/28 08:03:58;;;;;;;1999.90;999.90;;;22.70;99.90;;;;;;5094475;28;20470;-88
2021/06/28 08:06:24;;;;;;;1999.90;999.90;;;22.90;99.90;;;;;;5093692;28;20413;-88
2021/06/28 08:08:52;;;;;;;1999.90;999.90;;;22.90;99.90;;;;;;5094878;28;20187;-88
2021/06/28 08:11:21;;;;;;;1999.90;999.90;;;23.00;99.90;;;;;;5077404;28;20433;-87
2021/06/28 08:13:48;;;;;;;1999.90;999.90;;;23.10;99.90;;;;;;5076598;28;20449;-87
2021/06/28 08:16:18;;;;;;;1999.90;999.90;;;23.20;99.90;;;;;;5076640;28;20441;-87
2021/06/28 08:18:46;;;;;;;1999.90;999.90;;;23.20;99.90;;;;;;5076467;28;20420;-88
2021/06/28 08:21:12;;;;;;;1999.90;999.90;;;23.20;99.90;;;;;;5094334;28;20769;-88
2021/06/28 08:23:38;;;;;;;1999.90;999.90;;;23.20;99.90;;;;;;5076428;28;20424;-87
2021/06/28 08:26:08;;;;;;;1999.90;999.90;;;23.20;99.90;;;;;;5076512;28;20416;-88
2021/06/28 08:28:39;;;;;;;1999.90;999.90;;;23.20;99.90;;;;;;5094238;28;20494;-88
2021/06/28 08:31:08;;;;;;;1999.90;999.90;;;23.30;99.90;;;;;;5077205;28;20454;-88
2021/06/28 08:33:35;;;;;;;1999.90;999.90;;;23.40;99.90;;;;;;5094203;28;20999;-88
2021/06/28 08:36:02;;;;;;;1999.90;999.90;;;23.50;99.90;;;;;;5094177;28;20412;-87
2021/06/28 08:38:28;;;;;;;1999.90;999.90;;;23.60;99.90;;;;;;5094019;28;20470;-87
2021/06/28 08:40:54;;;;;;;1999.90;999.90;;;23.70;99.90;;;;;;5094271;28;20413;-87
2021/06/28 08:43:23;;;;;;;1999.90;999.90;;;23.90;99.90;;;;;;5093139;28;20206;-87
2021/06/28 08:45:50;;;;;;;1999.90;999.90;;;24.10;99.90;;;;;;5075815;28;20449;-87
2021/06/28 08:48:16;;;;;;;1999.90;999.90;;;24.20;99.90;;;;;;5075843;28;21001;-87
2021/06/28 08:50:50;;;;;;;1999.90;999.90;;;24.30;99.90;;;;;;5094346;28;20425;-87
2021/06/28 08:53:21;;;;;;;1999.90;999.90;;;24.50;99.90;;;;;;5075582;28;20436;-87
2021/06/28 08:55:49;;;;;;;1999.90;999.90;;;24.80;99.90;;;;;;5093738;28;20393;-87
2021/06/28 08:58:19;;;;;;;1999.90;999.90;;;25.00;99.90;;;;;;5093528;28;20402;-87
2021/06/28 09:00:45;;;;;;;1999.90;999.90;;;25.00;99.90;;;;;;5091855;28;20451;-86
2021/06/28 09:03:17;;;;;;;1999.90;999.90;;;25.30;99.90;;;;;;5093686;28;20413;-87
2021/06/28 09:05:59;;;;;;;1999.90;999.90;;;25.20;99.90;;;;;;5093617;28;20388;-87
2021/06/28 09:08:26;;;;;;;1999.90;999.90;;;25.30;99.90;;;;;;5092927;28;20780;-87
2021/06/28 09:10:52;;;;;;;1999.90;999.90;;;25.30;99.90;;;;;;5075704;28;20516;-87
2021/06/28 09:13:35;;;;;;;1999.90;999.90;;;25.30;99.90;;;;;;5075593;28;20482;-87
2021/06/28 09:16:14;;;;;;;1999.90;999.90;;;25.60;99.90;;;;;;5075950;28;20411;-87
2021/06/28 09:18:52;;;;;;;1999.90;999.90;;;25.90;99.90;;;;;;5092933;28;20399;-86
2021/06/28 09:21:42;;;;;;;1999.90;999.90;;;26.10;99.90;;;;;;5093635;28;20479;-87
2021/06/28 09:24:25;;;;;;;1999.90;999.90;;;26.20;99.90;;;;;;5086163;28;20923;-86
2021/06/28 09:26:55;;;;;;;1999.90;999.90;;;26.50;99.90;;;;;;5093601;28;20440;-86
2021/06/28 09:29:36;;;;;;;1999.90;999.90;;;26.60;99.90;;;;;;5075189;28;20477;-86
2021/06/28 09:32:08;;;;;;;1999.90;999.90;;;26.60;99.90;;;;;;5075745;28;20504;-86
2021/06/28 09:34:39;;;;;;;1999.90;999.90;;;26.60;99.90;;;;;;5093501;28;20462;-86
2021/06/28 09:37:12;;;;;;;1999.90;999.90;;;26.80;99.90;;;;;;5076540;28;20489;-85
2021/06/28 09:39:59;;;;;;;1999.90;999.90;;;26.70;99.90;;;;;;5093301;28;20413;-85
2021/06/28 09:42:27;;;;;;;1999.90;999.90;;;26.50;99.90;;;;;;5093647;28;20393;-85
2021/06/28 09:45:03;;;;;;;1999.90;999.90;;;26.60;99.90;;;;;;5075041;28;20405;-86
2021/06/28 09:47:41;;;;;;;1999.90;999.90;;;26.80;99.90;;;;;;5093692;28;20423;-86
2021/06/28 09:50:20;;;;;;;1999.90;999.90;;;26.90;99.90;;;;;;5075399;28;20801;-86
2021/06/28 09:52:51;;;;;;;1999.90;999.90;;;27.20;99.90;;;;;;5075686;28;20441;-87
2021/06/28 09:55:20;;;;;;;1999.90;999.90;;;27.30;99.90;;;;;;5075284;28;20413;-85
2021/06/28 09:58:39;;;;;;;1999.90;999.90;;;27.00;99.90;;;;;;5075329;28;20742;-86
2021/06/28 10:01:11;;;;;;;1999.90;999.90;;;26.70;99.90;;;;;;5093379;28;20400;-89
2021/06/28 10:03:51;;;;;;;1999.90;999.90;;;26.50;99.90;;;;;;5075228;28;20940;-86
2021/06/28 10:08:52;;;;;;;1999.90;999.90;;;26.60;99.90;;;;;;5095873;28;20796;-86
2021/06/28 10:11:31;;;;;;;1999.90;999.90;;;27.00;99.90;;;;;;5097066;28;20393;-87
2021/06/28 10:14:05;;;;;;;1999.90;999.90;;;27.30;99.90;;;;;;5079052;28;20462;-86
2021/06/28 10:17:04;;;;;;;1999.90;999.90;;;27.70;99.90;;;;;;5097084;28;20930;-87
2021/06/28 10:19:51;;;;;;;;;;;;;;;;;;;;;
2021/06/28 10:22:25;;;;;;;1999.90;999.90;;;28.40;99.90;;;;;;5097035;28;20864;-87
2021/06/28 10:25:55;;;;;;;1999.90;999.90;;;28.40;99.90;;;;;;5095338;28;20408;-87
2021/06/28 10:28:49;;;;;;;1999.90;999.90;;;28.30;99.90;;;;;;5079224;28;20405;-87
2021/06/28 10:31:21;;;;;;;1999.90;999.90;;;27.70;99.90;;;;;;5096984;28;20382;-87
2021/06/28 10:34:22;;;;;;;1999.90;999.90;;;27.40;99.90;;;;;;5096474;28;20437;-87
2021/06/28 10:37:22;;;;;;;1999.90;999.90;;;27.10;99.90;;;;;;5078281;28;20424;-87
2021/06/28 10:40:38;;;;;;;;;;;;;;;;;;;;;
2021/06/28 10:42:57;;;;;;;1999.90;999.90;;;26.50;99.90;;;;;;5091026;28;20436;-85
2021/06/28 10:45:44;;;;;;;1999.90;999.90;;;26.50;99.90;;;;;;5094797;28;20988;-84
2021/06/28 10:48:30;;;;;;;1999.90;999.90;;;26.20;99.90;;;;;;5077496;28;20857;-84
2021/06/28 10:51:12;;;;;;;1999.90;999.90;;;25.80;99.90;;;;;;5076872;28;20408;-85
2021/06/28 10:54:39;;;;;;;1999.90;999.90;;;25.20;99.90;;;;;;5093094;28;20961;-84
2021/06/28 11:03:49;;;;;;;1999.90;999.90;;;24.20;99.90;;;;;;3476007;26;25515437;-84
2021/06/28 11:07:04;;;;;;;1999.90;999.90;;;24.40;99.90;;;;;;5075996;28;20581;-84
2021/06/28 11:09:35;;;;;;;1999.90;999.90;;;24.50;99.90;;;;;;4988011;28;20433;-83
2021/06/28 11:12:02;;;;;;;1999.90;999.90;;;24.60;99.90;;;;;;4976736;28;20419;-83
2021/06/28 11:14:28;;;;;;;1999.90;999.90;;;24.80;99.90;;;;;;5037490;28;20864;-83
2021/06/28 11:21:43;;;;;;;;;;;;;;;;;;;;;
2021/06/28 11:24:09;;;;;;;1999.90;999.90;;;26.00;99.90;;;;;;4950481;28;20420;-84
2021/06/28 11:26:36;;;;;;;1999.90;999.90;;;26.60;99.90;;;;;;5056232;28;20916;-83
2021/06/28 11:29:02;;;;;;;1999.90;999.90;;;27.00;99.90;;;;;;5038396;28;20181;-83
2021/06/28 11:31:29;;;;;;;1999.90;999.90;;;27.50;99.90;;;;;;5055809;28;20502;-83
2021/06/28 11:33:57;;;;;;;1999.90;999.90;;;27.80;99.90;;;;;;5056082;28;20447;-84
2021/06/28 11:36:23;;;;;;;1999.90;999.90;;;27.90;99.90;;;;;;5056052;28;20399;-84
2021/06/28 11:38:50;;;;;;;1999.90;999.90;;;27.80;99.90;;;;;;5055526;28;20425;-83
2021/06/28 11:41:18;;;;;;;1999.90;999.90;;;28.00;99.90;;;;;;5056076;28;20247;-84
2021/06/28 11:43:52;;;;;;;1999.90;999.90;;;28.00;99.90;;;;;;5055668;28;20411;-83
2021/06/28 11:46:30;;;;;;;1999.90;999.90;;;28.10;99.90;;;;;;5055415;28;20452;-84
2021/06/28 11:48:59;;;;;;;1999.90;999.90;;;28.10;99.90;;;;;;5037418;28;20430;-83
2021/06/28 11:51:29;;;;;;;1999.90;999.90;;;28.30;99.90;;;;;;5055717;28;20891;-83
2021/06/28 11:54:02;;;;;;;1999.90;999.90;;;28.50;99.90;;;;;;5057221;28;20522;-83
2021/06/28 11:56:38;;;;;;;1999.90;999.90;;;28.60;99.90;;;;;;5037823;28;20476;-86
2021/06/28 11:59:17;;;;;;;1999.90;999.90;;;28.80;99.90;;;;;;5038236;28;20426;-86
2021/06/28 12:01:55;;;;;;;1999.90;999.90;;;29.10;99.90;;;;;;5037843;28;20494;-86
2021/06/28 12:04:30;;;;;;;1999.90;999.90;;;28.90;99.90;;;;;;5039114;28;20425;-86
2021/06/28 12:06:57;;;;;;;1999.90;999.90;;;28.90;99.90;;;;;;5056978;28;20444;-86
2021/06/28 12:09:35;;;;;;;1999.90;999.90;;;28.60;99.90;;;;;;5055330;28;20782;-85
2021/06/28 12:12:08;;;;;;;1999.90;999.90;;;28.40;99.90;;;;;;5055544;28;20430;-86
2021/06/28 12:14:38;;;;;;;1999.90;999.90;;;28.20;99.90;;;;;;5055391;28;20480;-84
2021/06/28 12:17:11;;;;;;;1999.90;999.90;;;27.90;99.90;;;;;;5057459;28;20495;-83
2021/06/28 12:19:39;;;;;;;1999.90;999.90;;;27.80;99.90;;;;;;5055465;28;20510;-85
2021/06/28 12:22:20;;;;;;;1999.90;999.90;;;27.40;99.90;;;;;;5053475;28;20427;-86
2021/06/28 12:25:00;;;;;;;1999.90;999.90;;;27.30;99.90;;;;;;5055054;28;20910;-86
2021/06/28 12:27:29;;;;;;;1999.90;999.90;;;27.20;99.90;;;;;;5054259;28;20391;-86
2021/06/28 12:30:16;;;;;;;1999.90;999.90;;;26.90;99.90;;;;;;5036111;28;20443;-86
2021/06/28 12:35:35;;;;;;;1999.90;999.90;;;26.40;99.90;;;;;;5040300;28;20407;-86
2021/06/28 12:38:04;;;;;;;1999.90;999.90;;;26.40;99.90;;;;;;5036659;28;20403;-86
2021/06/28 12:40:42;;;;;;;1999.90;999.90;;;26.30;99.90;;;;;;5054203;28;20191;-86